sensor_id;sensor_type;location;lat;lon;timestamp;temperature;humidity
13093;DHT22;6612;49.568;11.000;2022-07-22T00:00:50;24.30;44.20
13093;DHT22;6612;49.568;11.000;2022-07-22T00:03:17;24.30;44.80
13093;DHT22;6612;49.568;11.000;2022-07-22T00:05:45;24.20;44.20
13093;DHT22;6612;49.568;11.000;2022-07-22T00:08:12;24.20;44.30
13093;DHT22;6612;49.568;11.000;2022-07-22T00:10:39;24.10;44.20
13093;DHT22;6612;49.568;11.000;2022-07-22T00:13:06;24.10;44.30
13093;DHT22;6612;49.568;11.000;2022-07-22T00:15:35;24.10;44.40
13093;DHT22;6612;49.568;11.000;2022-07-22T00:18:02;24.00;44.50
13093;DHT22;6612;49.568;11.000;2022-07-22T00:20:29;24.00;44.50
13093;DHT22;6612;49.568;11.000;2022-07-22T00:22:56;23.90;44.60
13093;DHT22;6612;49.568;11.000;2022-07-22T00:25:23;23.90;44.50
13093;DHT22;6612;49.568;11.000;2022-07-22T00:27:50;23.80;44.50
13093;DHT22;6612;49.568;11.000;2022-07-22T00:30:17;23.80;44.60
13093;DHT22;6612;49.568;11.000;2022-07-22T00:32:46;23.70;44.60
13093;DHT22;6612;49.568;11.000;2022-07-22T00:35:13;23.70;44.90
13093;DHT22;6612;49.568;11.000;2022-07-22T00:37:40;23.60;44.70
13093;DHT22;6612;49.568;11.000;2022-07-22T00:40:08;23.50;44.70
13093;DHT22;6612;49.568;11.000;2022-07-22T00:42:35;23.50;45.00
13093;DHT22;6612;49.568;11.000;2022-07-22T00:45:02;23.40;45.00
13093;DHT22;6612;49.568;11.000;2022-07-22T00:47:29;23.40;45.10
13093;DHT22;6612;49.568;11.000;2022-07-22T00:49:58;23.40;45.30
13093;DHT22;6612;49.568;11.000;2022-07-22T00:52:25;23.30;45.40
13093;DHT22;6612;49.568;11.000;2022-07-22T00:54:53;23.30;45.50
13093;DHT22;6612;49.568;11.000;2022-07-22T00:57:21;23.30;45.60
13093;DHT22;6612;49.568;11.000;2022-07-22T00:59:48;23.30;45.70
13093;DHT22;6612;49.568;11.000;2022-07-22T01:02:15;23.20;45.80
13093;DHT22;6612;49.568;11.000;2022-07-22T01:04:42;23.20;46.00
13093;DHT22;6612;49.568;11.000;2022-07-22T01:07:11;23.20;46.10
13093;DHT22;6612;49.568;11.000;2022-07-22T01:09:38;23.20;46.20
13093;DHT22;6612;49.568;11.000;2022-07-22T01:12:08;23.20;46.10
13093;DHT22;6612;49.568;11.000;2022-07-22T01:14:36;23.20;46.10
13093;DHT22;6612;49.568;11.000;2022-07-22T01:17:03;23.10;46.10
13093;DHT22;6612;49.568;11.000;2022-07-22T01:19:31;23.10;46.20
13093;DHT22;6612;49.568;11.000;2022-07-22T01:21:59;23.10;46.20
13093;DHT22;6612;49.568;11.000;2022-07-22T01:24:26;23.10;46.30
13093;DHT22;6612;49.568;11.000;2022-07-22T01:26:53;23.10;46.30
13093;DHT22;6612;49.568;11.000;2022-07-22T01:29:20;23.00;46.20
13093;DHT22;6612;49.568;11.000;2022-07-22T01:31:47;23.00;46.30
13093;DHT22;6612;49.568;11.000;2022-07-22T01:34:14;23.00;46.40
13093;DHT22;6612;49.568;11.000;2022-07-22T01:36:41;22.90;46.50
13093;DHT22;6612;49.568;11.000;2022-07-22T01:39:09;22.90;46.60
13093;DHT22;6612;49.568;11.000;2022-07-22T01:41:37;22.90;46.80
13093;DHT22;6612;49.568;11.000;2022-07-22T01:44:04;22.80;46.70
13093;DHT22;6612;49.568;11.000;2022-07-22T01:46:31;22.80;46.80
13093;DHT22;6612;49.568;11.000;2022-07-22T01:48:58;22.80;46.90
13093;DHT22;6612;49.568;11.000;2022-07-22T01:51:25;22.80;47.00
13093;DHT22;6612;49.568;11.000;2022-07-22T01:53:52;22.80;47.00
13093;DHT22;6612;49.568;11.000;2022-07-22T01:56:20;22.80;47.00
13093;DHT22;6612;49.568;11.000;2022-07-22T01:58:47;22.70;47.10
13093;DHT22;6612;49.568;11.000;2022-07-22T02:01:14;22.70;47.10
13093;DHT22;6612;49.568;11.000;2022-07-22T02:03:41;22.70;47.10
13093;DHT22;6612;49.568;11.000;2022-07-22T02:06:08;22.70;47.20
13093;DHT22;6612;49.568;11.000;2022-07-22T02:08:35;22.60;47.20
13093;DHT22;6612;49.568;11.000;2022-07-22T02:11:02;22.60;47.30
13093;DHT22;6612;49.568;11.000;2022-07-22T02:13:31;22.60;47.30
13093;DHT22;6612;49.568;11.000;2022-07-22T02:15:58;22.60;47.40
13093;DHT22;6612;49.568;11.000;2022-07-22T02:18:25;22.60;47.40
13093;DHT22;6612;49.568;11.000;2022-07-22T02:20:52;22.50;47.40
13093;DHT22;6612;49.568;11.000;2022-07-22T02:23:19;22.50;47.40
13093;DHT22;6612;49.568;11.000;2022-07-22T02:25:46;22.50;47.50
13093;DHT22;6612;49.568;11.000;2022-07-22T02:28:13;22.40;47.40
13093;DHT22;6612;49.568;11.000;2022-07-22T02:30:42;22.40;47.60
13093;DHT22;6612;49.568;11.000;2022-07-22T02:33:09;22.40;47.80
13093;DHT22;6612;49.568;11.000;2022-07-22T02:35:36;22.30;47.70
13093;DHT22;6612;49.568;11.000;2022-07-22T02:38:03;22.30;47.80
13093;DHT22;6612;49.568;11.000;2022-07-22T02:40:31;22.30;47.90
13093;DHT22;6612;49.568;11.000;2022-07-22T02:42:58;22.20;47.90
13093;DHT22;6612;49.568;11.000;2022-07-22T02:45:25;22.20;48.00
13093;DHT22;6612;49.568;11.000;2022-07-22T02:47:55;22.20;48.10
13093;DHT22;6612;49.568;11.000;2022-07-22T02:50:22;22.20;48.40
13093;DHT22;6612;49.568;11.000;2022-07-22T02:52:49;22.10;48.30
13093;DHT22;6612;49.568;11.000;2022-07-22T02:55:17;22.10;48.30
13093;DHT22;6612;49.568;11.000;2022-07-22T02:57:44;22.10;48.30
13093;DHT22;6612;49.568;11.000;2022-07-22T03:00:12;22.10;48.40
13093;DHT22;6612;49.568;11.000;2022-07-22T03:02:39;22.10;48.40
13093;DHT22;6612;49.568;11.000;2022-07-22T03:05:08;22.10;48.30
13093;DHT22;6612;49.568;11.000;2022-07-22T03:07:35;22.10;48.40
13093;DHT22;6612;49.568;11.000;2022-07-22T03:10:03;22.10;48.30
13093;DHT22;6612;49.568;11.000;2022-07-22T03:12:30;22.00;48.30
13093;DHT22;6612;49.568;11.000;2022-07-22T03:14:57;22.00;49.00
13093;DHT22;6612;49.568;11.000;2022-07-22T03:17:24;22.00;48.40
13093;DHT22;6612;49.568;11.000;2022-07-22T03:19:51;22.00;48.50
13093;DHT22;6612;49.568;11.000;2022-07-22T03:22:20;21.90;48.50
13093;DHT22;6612;49.568;11.000;2022-07-22T03:24:47;21.90;48.70
13093;DHT22;6612;49.568;11.000;2022-07-22T03:27:14;21.90;48.80
13093;DHT22;6612;49.568;11.000;2022-07-22T03:29:41;21.80;48.80
13093;DHT22;6612;49.568;11.000;2022-07-22T03:32:08;21.80;48.90
13093;DHT22;6612;49.568;11.000;2022-07-22T03:34:34;21.80;48.90
13093;DHT22;6612;49.568;11.000;2022-07-22T03:37:01;21.80;48.90
13093;DHT22;6612;49.568;11.000;2022-07-22T03:39:30;21.80;49.00
13093;DHT22;6612;49.568;11.000;2022-07-22T03:41:57;21.70;49.00
13093;DHT22;6612;49.568;11.000;2022-07-22T03:44:24;21.70;49.00
13093;DHT22;6612;49.568;11.000;2022-07-22T03:46:51;21.70;49.00
13093;DHT22;6612;49.568;11.000;2022-07-22T03:49:18;21.70;49.20
13093;DHT22;6612;49.568;11.000;2022-07-22T03:51:45;21.70;49.30
13093;DHT22;6612;49.568;11.000;2022-07-22T03:54:12;21.70;49.40
13093;DHT22;6612;49.568;11.000;2022-07-22T03:56:40;21.70;49.50
13093;DHT22;6612;49.568;11.000;2022-07-22T03:59:07;21.70;49.70
13093;DHT22;6612;49.568;11.000;2022-07-22T04:01:34;21.70;49.60
13093;DHT22;6612;49.568;11.000;2022-07-22T04:04:01;21.70;49.60
13093;DHT22;6612;49.568;11.000;2022-07-22T04:06:28;21.70;49.50
13093;DHT22;6612;49.568;11.000;2022-07-22T04:08:55;21.70;49.50
13093;DHT22;6612;49.568;11.000;2022-07-22T04:11:22;21.80;49.50
13093;DHT22;6612;49.568;11.000;2022-07-22T04:13:51;21.80;49.40
13093;DHT22;6612;49.568;11.000;2022-07-22T04:16:18;21.80;49.30
13093;DHT22;6612;49.568;11.000;2022-07-22T04:18:45;21.80;49.30
13093;DHT22;6612;49.568;11.000;2022-07-22T04:21:12;21.70;49.40
13093;DHT22;6612;49.568;11.000;2022-07-22T04:23:39;21.70;49.50
13093;DHT22;6612;49.568;11.000;2022-07-22T04:26:06;21.80;49.70
13093;DHT22;6612;49.568;11.000;2022-07-22T04:28:34;21.80;49.90
13093;DHT22;6612;49.568;11.000;2022-07-22T04:31:03;21.90;50.20
13093;DHT22;6612;49.568;11.000;2022-07-22T04:33:31;22.10;50.70
13093;DHT22;6612;49.568;11.000;2022-07-22T04:35:59;22.20;50.70
13093;DHT22;6612;49.568;11.000;2022-07-22T04:38:27;22.40;50.70
13093;DHT22;6612;49.568;11.000;2022-07-22T04:40:54;22.60;50.70
13093;DHT22;6612;49.568;11.000;2022-07-22T04:43:21;22.80;50.50
13093;DHT22;6612;49.568;11.000;2022-07-22T04:45:48;23.00;50.30
13093;DHT22;6612;49.568;11.000;2022-07-22T04:48:16;23.20;50.10
13093;DHT22;6612;49.568;11.000;2022-07-22T04:50:44;23.40;49.90
13093;DHT22;6612;49.568;11.000;2022-07-22T04:53:11;23.60;49.70
13093;DHT22;6612;49.568;11.000;2022-07-22T04:55:38;23.70;49.50
13093;DHT22;6612;49.568;11.000;2022-07-22T04:58:05;23.90;49.20
13093;DHT22;6612;49.568;11.000;2022-07-22T05:00:32;24.00;49.00
13093;DHT22;6612;49.568;11.000;2022-07-22T05:02:59;24.10;49.10
13093;DHT22;6612;49.568;11.000;2022-07-22T05:05:28;24.20;48.80
13093;DHT22;6612;49.568;11.000;2022-07-22T05:07:55;24.30;48.80
13093;DHT22;6612;49.568;11.000;2022-07-22T05:10:22;24.40;48.80
13093;DHT22;6612;49.568;11.000;2022-07-22T05:12:49;24.50;48.70
13093;DHT22;6612;49.568;11.000;2022-07-22T05:15:16;24.70;48.80
13093;DHT22;6612;49.568;11.000;2022-07-22T05:17:46;25.00;49.30
13093;DHT22;6612;49.568;11.000;2022-07-22T05:20:13;25.30;49.80
13093;DHT22;6612;49.568;11.000;2022-07-22T05:22:43;25.80;50.40
13093;DHT22;6612;49.568;11.000;2022-07-22T05:25:11;26.40;50.70
13093;DHT22;6612;49.568;11.000;2022-07-22T05:27:38;27.00;50.30
13093;DHT22;6612;49.568;11.000;2022-07-22T05:30:06;27.70;49.80
13093;DHT22;6612;49.568;11.000;2022-07-22T05:32:34;28.40;49.10
13093;DHT22;6612;49.568;11.000;2022-07-22T05:35:01;29.10;48.40
13093;DHT22;6612;49.568;11.000;2022-07-22T05:37:28;29.70;47.30
13093;DHT22;6612;49.568;11.000;2022-07-22T05:39:57;30.30;46.00
13093;DHT22;6612;49.568;11.000;2022-07-22T05:42:24;30.80;45.00
13093;DHT22;6612;49.568;11.000;2022-07-22T05:44:51;31.10;44.20
13093;DHT22;6612;49.568;11.000;2022-07-22T05:47:18;31.50;43.60
13093;DHT22;6612;49.568;11.000;2022-07-22T05:49:45;31.80;43.00
13093;DHT22;6612;49.568;11.000;2022-07-22T05:52:12;32.10;42.50
13093;DHT22;6612;49.568;11.000;2022-07-22T05:54:39;32.50;42.40
13093;DHT22;6612;49.568;11.000;2022-07-22T05:57:07;32.90;42.40
13093;DHT22;6612;49.568;11.000;2022-07-22T05:59:36;33.50;41.80
13093;DHT22;6612;49.568;11.000;2022-07-22T06:02:03;34.10;41.50
13093;DHT22;6612;49.568;11.000;2022-07-22T06:04:31;34.60;41.00
13093;DHT22;6612;49.568;11.000;2022-07-22T06:06:57;35.30;39.50
13093;DHT22;6612;49.568;11.000;2022-07-22T06:09:25;35.80;38.70
13093;DHT22;6612;49.568;11.000;2022-07-22T06:11:52;36.40;37.80
13093;DHT22;6612;49.568;11.000;2022-07-22T06:14:20;36.90;36.70
13093;DHT22;6612;49.568;11.000;2022-07-22T06:16:47;37.40;35.60
13093;DHT22;6612;49.568;11.000;2022-07-22T06:19:14;37.80;35.00
13093;DHT22;6612;49.568;11.000;2022-07-22T06:21:41;38.20;34.30
13093;DHT22;6612;49.568;11.000;2022-07-22T06:24:08;38.60;33.70
13093;DHT22;6612;49.568;11.000;2022-07-22T06:26:35;39.00;33.00
13093;DHT22;6612;49.568;11.000;2022-07-22T06:29:02;39.40;32.40
13093;DHT22;6612;49.568;11.000;2022-07-22T06:31:31;39.80;31.90
13093;DHT22;6612;49.568;11.000;2022-07-22T06:33:58;40.10;31.00
13093;DHT22;6612;49.568;11.000;2022-07-22T06:36:25;40.50;30.60
13093;DHT22;6612;49.568;11.000;2022-07-22T06:38:52;40.90;30.10
13093;DHT22;6612;49.568;11.000;2022-07-22T06:41:19;41.30;29.60
13093;DHT22;6612;49.568;11.000;2022-07-22T06:43:46;41.60;29.10
13093;DHT22;6612;49.568;11.000;2022-07-22T06:46:13;42.00;28.70
13093;DHT22;6612;49.568;11.000;2022-07-22T06:48:42;42.40;28.20
13093;DHT22;6612;49.568;11.000;2022-07-22T06:51:09;42.70;27.60
13093;DHT22;6612;49.568;11.000;2022-07-22T06:53:36;43.10;27.40
13093;DHT22;6612;49.568;11.000;2022-07-22T06:56:03;43.30;27.00
13093;DHT22;6612;49.568;11.000;2022-07-22T06:58:31;43.70;26.60
13093;DHT22;6612;49.568;11.000;2022-07-22T07:00:58;44.00;26.10
13093;DHT22;6612;49.568;11.000;2022-07-22T07:03:25;44.30;25.70
13093;DHT22;6612;49.568;11.000;2022-07-22T07:05:53;44.50;25.30
13093;DHT22;6612;49.568;11.000;2022-07-22T07:08:20;44.70;24.70
13093;DHT22;6612;49.568;11.000;2022-07-22T07:10:47;44.80;24.30
13093;DHT22;6612;49.568;11.000;2022-07-22T07:13:14;44.80;23.90
13093;DHT22;6612;49.568;11.000;2022-07-22T07:15:41;44.80;23.70
13093;DHT22;6612;49.568;11.000;2022-07-22T07:18:08;44.80;23.40
13093;DHT22;6612;49.568;11.000;2022-07-22T07:20:36;44.60;23.30
13093;DHT22;6612;49.568;11.000;2022-07-22T07:23:04;44.40;23.40
13093;DHT22;6612;49.568;11.000;2022-07-22T07:25:32;44.30;23.40
13093;DHT22;6612;49.568;11.000;2022-07-22T07:27:59;44.00;23.50
13093;DHT22;6612;49.568;11.000;2022-07-22T07:30:26;43.80;23.40
13093;DHT22;6612;49.568;11.000;2022-07-22T07:32:53;43.60;23.10
13093;DHT22;6612;49.568;11.000;2022-07-22T07:35:20;43.40;23.30
13093;DHT22;6612;49.568;11.000;2022-07-22T07:37:47;43.10;23.20
13093;DHT22;6612;49.568;11.000;2022-07-22T07:40:16;42.70;23.00
13093;DHT22;6612;49.568;11.000;2022-07-22T07:42:42;42.30;22.90
13093;DHT22;6612;49.568;11.000;2022-07-22T07:45:10;41.80;23.10
13093;DHT22;6612;49.568;11.000;2022-07-22T07:47:37;41.30;23.30
13093;DHT22;6612;49.568;11.000;2022-07-22T07:50:05;40.70;23.50
13093;DHT22;6612;49.568;11.000;2022-07-22T07:52:37;40.20;23.80
13093;DHT22;6612;49.568;11.000;2022-07-22T07:55:05;39.70;24.30
13093;DHT22;6612;49.568;11.000;2022-07-22T07:57:33;39.20;24.80
13093;DHT22;6612;49.568;11.000;2022-07-22T08:00:01;38.80;25.10
13093;DHT22;6612;49.568;11.000;2022-07-22T08:02:29;38.40;25.50
13093;DHT22;6612;49.568;11.000;2022-07-22T08:04:56;38.10;25.80
13093;DHT22;6612;49.568;11.000;2022-07-22T08:07:23;37.80;26.10
13093;DHT22;6612;49.568;11.000;2022-07-22T08:09:50;37.60;26.30
13093;DHT22;6612;49.568;11.000;2022-07-22T08:12:17;37.40;26.50
13093;DHT22;6612;49.568;11.000;2022-07-22T08:14:45;37.20;27.00
13093;DHT22;6612;49.568;11.000;2022-07-22T08:17:12;37.00;27.00
13093;DHT22;6612;49.568;11.000;2022-07-22T08:19:39;36.80;27.20
13093;DHT22;6612;49.568;11.000;2022-07-22T08:22:06;36.70;27.40
13093;DHT22;6612;49.568;11.000;2022-07-22T08:24:33;36.60;27.70
13093;DHT22;6612;49.568;11.000;2022-07-22T08:27:00;36.50;28.00
13093;DHT22;6612;49.568;11.000;2022-07-22T08:29:27;36.40;27.90
13093;DHT22;6612;49.568;11.000;2022-07-22T08:31:56;36.40;28.10
13093;DHT22;6612;49.568;11.000;2022-07-22T08:34:23;36.40;28.10
13093;DHT22;6612;49.568;11.000;2022-07-22T08:36:50;36.40;28.10
13093;DHT22;6612;49.568;11.000;2022-07-22T08:39:17;36.30;28.70
13093;DHT22;6612;49.568;11.000;2022-07-22T08:41:44;36.20;28.30
13093;DHT22;6612;49.568;11.000;2022-07-22T08:44:11;36.10;28.30
13093;DHT22;6612;49.568;11.000;2022-07-22T08:46:38;36.00;28.40
13093;DHT22;6612;49.568;11.000;2022-07-22T08:49:07;35.90;28.50
13093;DHT22;6612;49.568;11.000;2022-07-22T08:51:34;35.80;28.60
13093;DHT22;6612;49.568;11.000;2022-07-22T08:54:01;35.80;28.80
13093;DHT22;6612;49.568;11.000;2022-07-22T08:56:28;35.70;29.00
13093;DHT22;6612;49.568;11.000;2022-07-22T08:58:56;35.70;29.10
13093;DHT22;6612;49.568;11.000;2022-07-22T09:01:23;35.70;29.20
13093;DHT22;6612;49.568;11.000;2022-07-22T09:03:51;35.70;29.20
13093;DHT22;6612;49.568;11.000;2022-07-22T09:06:23;35.70;29.00
13093;DHT22;6612;49.568;11.000;2022-07-22T09:08:54;35.70;28.90
13093;DHT22;6612;49.568;11.000;2022-07-22T09:11:23;35.60;28.80
13093;DHT22;6612;49.568;11.000;2022-07-22T09:13:51;35.60;28.80
13093;DHT22;6612;49.568;11.000;2022-07-22T09:16:38;35.60;28.80
13093;DHT22;6612;49.568;11.000;2022-07-22T09:19:05;35.50;28.80
13093;DHT22;6612;49.568;11.000;2022-07-22T09:21:35;35.50;28.90
13093;DHT22;6612;49.568;11.000;2022-07-22T09:24:03;35.40;28.90
13093;DHT22;6612;49.568;11.000;2022-07-22T09:26:31;35.40;28.90
13093;DHT22;6612;49.568;11.000;2022-07-22T09:28:59;35.30;28.90
13093;DHT22;6612;49.568;11.000;2022-07-22T09:31:28;35.30;29.00
13093;DHT22;6612;49.568;11.000;2022-07-22T09:33:56;35.30;29.10
13093;DHT22;6612;49.568;11.000;2022-07-22T09:36:23;35.20;29.10
13093;DHT22;6612;49.568;11.000;2022-07-22T09:38:52;35.20;29.10
13093;DHT22;6612;49.568;11.000;2022-07-22T09:41:20;35.20;29.10
13093;DHT22;6612;49.568;11.000;2022-07-22T09:43:47;35.20;29.30
13093;DHT22;6612;49.568;11.000;2022-07-22T09:46:15;35.20;29.70
13093;DHT22;6612;49.568;11.000;2022-07-22T09:48:42;35.30;29.90
13093;DHT22;6612;49.568;11.000;2022-07-22T09:51:09;35.30;29.90
13093;DHT22;6612;49.568;11.000;2022-07-22T09:53:36;35.50;30.20
13093;DHT22;6612;49.568;11.000;2022-07-22T09:56:06;35.70;29.60
13093;DHT22;6612;49.568;11.000;2022-07-22T09:58:33;35.80;29.20
13093;DHT22;6612;49.568;11.000;2022-07-22T10:01:04;35.90;28.90
13093;DHT22;6612;49.568;11.000;2022-07-22T10:03:33;36.00;28.60
13093;DHT22;6612;49.568;11.000;2022-07-22T10:06:04;36.20;28.60
13093;DHT22;6612;49.568;11.000;2022-07-22T10:08:32;36.20;28.50
13093;DHT22;6612;49.568;11.000;2022-07-22T10:11:01;36.20;28.60
13093;DHT22;6612;49.568;11.000;2022-07-22T10:13:30;36.10;28.20
13093;DHT22;6612;49.568;11.000;2022-07-22T10:15:58;36.00;27.90
13093;DHT22;6612;49.568;11.000;2022-07-22T10:18:26;36.00;27.80
13093;DHT22;6612;49.568;11.000;2022-07-22T10:21:03;35.80;27.80
13093;DHT22;6612;49.568;11.000;2022-07-22T10:23:31;35.70;28.20
13093;DHT22;6612;49.568;11.000;2022-07-22T10:26:00;35.60;28.50
13093;DHT22;6612;49.568;11.000;2022-07-22T10:28:30;35.50;28.70
13093;DHT22;6612;49.568;11.000;2022-07-22T10:31:16;35.50;28.60
13093;DHT22;6612;49.568;11.000;2022-07-22T10:33:45;35.50;29.10
13093;DHT22;6612;49.568;11.000;2022-07-22T10:36:14;35.60;29.20
13093;DHT22;6612;49.568;11.000;2022-07-22T10:39:02;35.70;29.00
13093;DHT22;6612;49.568;11.000;2022-07-22T10:41:34;35.80;28.70
13093;DHT22;6612;49.568;11.000;2022-07-22T10:44:03;35.90;28.40
13093;DHT22;6612;49.568;11.000;2022-07-22T10:46:52;36.10;28.70
13093;DHT22;6612;49.568;11.000;2022-07-22T10:49:20;36.20;28.30
13093;DHT22;6612;49.568;11.000;2022-07-22T10:52:09;36.40;28.40
13093;DHT22;6612;49.568;11.000;2022-07-22T10:57:37;36.80;28.40
13093;DHT22;6612;49.568;11.000;2022-07-22T11:00:07;37.00;28.50
13093;DHT22;6612;49.568;11.000;2022-07-22T11:02:35;37.20;28.10
13093;DHT22;6612;49.568;11.000;2022-07-22T11:05:04;37.30;28.10
13093;DHT22;6612;49.568;11.000;2022-07-22T11:07:31;37.40;27.70
13093;DHT22;6612;49.568;11.000;2022-07-22T11:10:09;37.70;27.80
13093;DHT22;6612;49.568;11.000;2022-07-22T11:12:36;37.70;27.70
13093;DHT22;6612;49.568;11.000;2022-07-22T11:15:06;37.80;26.90
13093;DHT22;6612;49.568;11.000;2022-07-22T11:17:34;37.70;26.40
13093;DHT22;6612;49.568;11.000;2022-07-22T11:20:02;37.40;26.20
13093;DHT22;6612;49.568;11.000;2022-07-22T11:22:30;37.20;26.10
13093;DHT22;6612;49.568;11.000;2022-07-22T11:24:59;37.00;26.10
13093;DHT22;6612;49.568;11.000;2022-07-22T11:27:26;36.70;26.30
13093;DHT22;6612;49.568;11.000;2022-07-22T11:29:54;36.50;26.60
13093;DHT22;6612;49.568;11.000;2022-07-22T11:32:25;36.30;26.80
13093;DHT22;6612;49.568;11.000;2022-07-22T11:34:53;36.10;27.10
13093;DHT22;6612;49.568;11.000;2022-07-22T11:37:22;35.90;27.10
13093;DHT22;6612;49.568;11.000;2022-07-22T11:39:50;35.80;27.00
13093;DHT22;6612;49.568;11.000;2022-07-22T11:42:17;35.60;27.00
13093;DHT22;6612;49.568;11.000;2022-07-22T11:44:44;35.50;27.10
13093;DHT22;6612;49.568;11.000;2022-07-22T11:47:11;35.30;27.10
13093;DHT22;6612;49.568;11.000;2022-07-22T11:49:40;35.20;27.30
13093;DHT22;6612;49.568;11.000;2022-07-22T11:52:08;35.00;27.50
13093;DHT22;6612;49.568;11.000;2022-07-22T11:54:37;34.90;27.80
13093;DHT22;6612;49.568;11.000;2022-07-22T11:57:05;34.80;27.80
13093;DHT22;6612;49.568;11.000;2022-07-22T11:59:33;34.70;27.80
13093;DHT22;6612;49.568;11.000;2022-07-22T12:02:02;34.60;27.90
13093;DHT22;6612;49.568;11.000;2022-07-22T12:04:30;34.60;28.30
13093;DHT22;6612;49.568;11.000;2022-07-22T12:07:00;34.50;28.40
13093;DHT22;6612;49.568;11.000;2022-07-22T12:09:31;34.50;28.10
13093;DHT22;6612;49.568;11.000;2022-07-22T12:11:59;34.50;28.20
13093;DHT22;6612;49.568;11.000;2022-07-22T12:14:28;34.50;28.40
13093;DHT22;6612;49.568;11.000;2022-07-22T12:16:58;34.40;28.40
13093;DHT22;6612;49.568;11.000;2022-07-22T12:19:26;34.40;28.60
13093;DHT22;6612;49.568;11.000;2022-07-22T12:21:56;34.40;28.60
13093;DHT22;6612;49.568;11.000;2022-07-22T12:24:29;34.50;28.50
13093;DHT22;6612;49.568;11.000;2022-07-22T12:26:58;34.50;28.50
13093;DHT22;6612;49.568;11.000;2022-07-22T12:29:27;34.40;28.70
13093;DHT22;6612;49.568;11.000;2022-07-22T12:31:57;34.40;28.40
13093;DHT22;6612;49.568;11.000;2022-07-22T12:34:32;34.50;28.20
13093;DHT22;6612;49.568;11.000;2022-07-22T12:37:01;34.40;28.20
13093;DHT22;6612;49.568;11.000;2022-07-22T12:39:39;34.40;28.60
13093;DHT22;6612;49.568;11.000;2022-07-22T12:42:16;34.40;28.40
13093;DHT22;6612;49.568;11.000;2022-07-22T12:44:51;34.40;28.40
13093;DHT22;6612;49.568;11.000;2022-07-22T12:47:38;34.30;28.50
13093;DHT22;6612;49.568;11.000;2022-07-22T12:50:20;34.30;28.50
13093;DHT22;6612;49.568;11.000;2022-07-22T12:52:47;34.30;28.10
13093;DHT22;6612;49.568;11.000;2022-07-22T12:55:16;34.30;28.40
13093;DHT22;6612;49.568;11.000;2022-07-22T12:57:43;34.30;28.20
13093;DHT22;6612;49.568;11.000;2022-07-22T13:00:10;34.30;28.30
13093;DHT22;6612;49.568;11.000;2022-07-22T13:02:42;34.30;28.30
13093;DHT22;6612;49.568;11.000;2022-07-22T13:05:09;34.30;28.20
13093;DHT22;6612;49.568;11.000;2022-07-22T13:07:36;34.30;28.10
13093;DHT22;6612;49.568;11.000;2022-07-22T13:10:03;34.20;28.20
13093;DHT22;6612;49.568;11.000;2022-07-22T13:12:32;34.20;28.30
13093;DHT22;6612;49.568;11.000;2022-07-22T13:14:59;34.20;28.40
13093;DHT22;6612;49.568;11.000;2022-07-22T13:17:26;34.20;28.40
13093;DHT22;6612;49.568;11.000;2022-07-22T13:19:53;34.20;28.30
13093;DHT22;6612;49.568;11.000;2022-07-22T13:22:20;34.20;28.10
13093;DHT22;6612;49.568;11.000;2022-07-22T13:24:47;34.30;28.20
13093;DHT22;6612;49.568;11.000;2022-07-22T13:27:14;34.20;28.10
13093;DHT22;6612;49.568;11.000;2022-07-22T13:29:43;34.20;28.00
13093;DHT22;6612;49.568;11.000;2022-07-22T13:32:10;34.20;28.00
13093;DHT22;6612;49.568;11.000;2022-07-22T13:34:37;34.30;28.20
13093;DHT22;6612;49.568;11.000;2022-07-22T13:37:03;34.20;28.30
13093;DHT22;6612;49.568;11.000;2022-07-22T13:39:30;34.20;28.20
13093;DHT22;6612;49.568;11.000;2022-07-22T13:41:57;34.30;27.90
13093;DHT22;6612;49.568;11.000;2022-07-22T13:44:24;34.30;27.90
13093;DHT22;6612;49.568;11.000;2022-07-22T13:46:53;34.20;27.90
13093;DHT22;6612;49.568;11.000;2022-07-22T13:49:20;34.20;27.90
13093;DHT22;6612;49.568;11.000;2022-07-22T13:51:48;34.20;28.20
13093;DHT22;6612;49.568;11.000;2022-07-22T13:54:16;34.20;28.00
13093;DHT22;6612;49.568;11.000;2022-07-22T13:56:44;34.30;28.00
13093;DHT22;6612;49.568;11.000;2022-07-22T13:59:13;34.20;27.90
13093;DHT22;6612;49.568;11.000;2022-07-22T14:01:40;34.20;27.70
13093;DHT22;6612;49.568;11.000;2022-07-22T14:04:08;34.20;27.60
13093;DHT22;6612;49.568;11.000;2022-07-22T14:06:36;34.10;27.80
13093;DHT22;6612;49.568;11.000;2022-07-22T14:09:04;34.10;27.80
13093;DHT22;6612;49.568;11.000;2022-07-22T14:11:31;34.10;27.90
13093;DHT22;6612;49.568;11.000;2022-07-22T14:13:58;34.10;27.50
13093;DHT22;6612;49.568;11.000;2022-07-22T14:16:25;34.10;27.50
13093;DHT22;6612;49.568;11.000;2022-07-22T14:19:02;34.10;27.50
13093;DHT22;6612;49.568;11.000;2022-07-22T14:21:31;34.10;27.40
13093;DHT22;6612;49.568;11.000;2022-07-22T14:23:58;34.00;27.40
13093;DHT22;6612;49.568;11.000;2022-07-22T14:26:25;34.00;27.40
13093;DHT22;6612;49.568;11.000;2022-07-22T14:28:52;34.00;27.60
13093;DHT22;6612;49.568;11.000;2022-07-22T14:31:20;34.00;27.80
13093;DHT22;6612;49.568;11.000;2022-07-22T14:33:48;34.00;27.90
13093;DHT22;6612;49.568;11.000;2022-07-22T14:36:15;34.00;28.10
13093;DHT22;6612;49.568;11.000;2022-07-22T14:38:44;34.00;28.00
13093;DHT22;6612;49.568;11.000;2022-07-22T14:41:11;34.00;28.20
13093;DHT22;6612;49.568;11.000;2022-07-22T14:43:38;34.00;28.10
13093;DHT22;6612;49.568;11.000;2022-07-22T14:46:05;34.00;28.00
13093;DHT22;6612;49.568;11.000;2022-07-22T14:48:35;34.10;28.00
13093;DHT22;6612;49.568;11.000;2022-07-22T14:51:02;34.10;28.20
13093;DHT22;6612;49.568;11.000;2022-07-22T14:53:30;34.10;28.10
13093;DHT22;6612;49.568;11.000;2022-07-22T14:55:58;34.10;28.10
13093;DHT22;6612;49.568;11.000;2022-07-22T14:58:25;34.10;27.90
13093;DHT22;6612;49.568;11.000;2022-07-22T15:00:53;34.10;28.00
13093;DHT22;6612;49.568;11.000;2022-07-22T15:03:19;34.10;28.00
13093;DHT22;6612;49.568;11.000;2022-07-22T15:05:46;34.00;27.70
13093;DHT22;6612;49.568;11.000;2022-07-22T15:08:13;34.00;27.60
13093;DHT22;6612;49.568;11.000;2022-07-22T15:10:41;34.00;27.70
13093;DHT22;6612;49.568;11.000;2022-07-22T15:13:16;34.00;27.70
13093;DHT22;6612;49.568;11.000;2022-07-22T15:15:43;34.00;28.50
13093;DHT22;6612;49.568;11.000;2022-07-22T15:18:11;34.00;27.80
13093;DHT22;6612;49.568;11.000;2022-07-22T15:20:38;34.00;27.50
13093;DHT22;6612;49.568;11.000;2022-07-22T15:23:05;33.90;27.40
13093;DHT22;6612;49.568;11.000;2022-07-22T15:25:32;33.90;27.60
13093;DHT22;6612;49.568;11.000;2022-07-22T15:27:59;33.90;27.50
13093;DHT22;6612;49.568;11.000;2022-07-22T15:30:28;33.90;27.40
13093;DHT22;6612;49.568;11.000;2022-07-22T15:32:55;33.90;27.50
13093;DHT22;6612;49.568;11.000;2022-07-22T15:35:22;33.90;27.60
13093;DHT22;6612;49.568;11.000;2022-07-22T15:37:49;33.90;27.40